Time;durP1;ratioP1;P1;durP2;ratioP2;P2;SDS_P1;SDS_P2;PMS_P1;PMS_P2;Temp;Humidity;BMP_temperature;BMP_pressure;BME280_temperature;BME280_humidity;BME280_pressure;Samples;Min_cycle;Max_cycle;Signal;HPM_P1;HPM_P2
2022/03/30 03:17:14;;;;;;;21.63;14.05;;;;;;;11.23;56.55;99283.19;4179631;28;20079;-58
2022/03/30 03:19:18;;;;;;;20.45;14.93;;;;;;;11.30;56.23;99275.34;4189507;28;20403;-58
2022/03/30 03:21:22;;;;;;;19.25;13.57;;;;;;;11.28;56.16;99271.03;4177171;28;20582;-58
2022/03/30 03:31:54;;;;;;;23.83;15.35;;;;;;;11.35;55.79;99252.75;4180330;28;20028;-58
2022/03/30 03:33:57;;;;;;;20.13;14.00;;;;;;;11.25;55.63;99255.44;4174559;28;20041;-58
2022/03/30 03:36:01;;;;;;;20.13;13.68;;;;;;;11.13;56.02;99257.25;4179876;28;20491;-57
2022/03/30 03:38:06;;;;;;;24.70;15.55;;;;;;;10.99;56.70;99259.97;4178091;28;20488;-58
2022/03/30 03:40:10;;;;;;;22.30;15.75;;;;;;;10.97;56.29;99263.44;4177816;28;20041;-57
2022/03/30 03:42:13;;;;;;;27.90;16.35;;;;;;;10.90;57.11;99248.75;4169422;28;20105;-58
2022/03/30 03:44:16;;;;;;;23.02;16.52;;;;;;;10.92;57.56;99247.00;4171587;28;20048;-58
2022/03/30 03:46:18;;;;;;;25.95;15.93;;;;;;;10.95;56.93;99237.47;4177994;28;20125;-58
2022/03/30 03:48:26;;;;;;;20.73;14.10;;;;;;;10.91;57.54;99237.50;4170947;28;20049;-58
2022/03/30 03:50:29;;;;;;;21.25;16.80;;;;;;;10.97;58.14;99240.03;4166565;28;20419;-58
2022/03/30 03:52:32;;;;;;;22.45;16.17;;;;;;;10.90;58.19;99235.75;4166181;28;20139;-58
2022/03/30 03:54:35;;;;;;;23.50;15.13;;;;;;;10.87;58.39;99236.63;4179614;28;20033;-58
2022/03/30 03:56:38;;;;;;;20.90;15.40;;;;;;;10.97;58.29;99234.84;4168365;28;20615;-58
2022/03/30 03:58:41;;;;;;;21.90;15.25;;;;;;;10.98;58.09;99229.63;4177130;28;20106;-58
2022/03/30 04:00:45;;;;;;;27.10;16.70;;;;;;;10.98;58.26;99233.94;4172094;28;20055;-58
2022/03/30 04:02:48;;;;;;;23.30;16.42;;;;;;;11.06;58.18;99239.97;4179929;28;20048;-58
2022/03/30 04:04:50;;;;;;;22.70;16.52;;;;;;;11.00;57.90;99235.66;4181497;28;20039;-58
2022/03/30 04:06:53;;;;;;;19.95;15.80;;;;;;;10.96;58.10;99223.56;4211753;28;20088;-58
2022/03/30 04:08:57;;;;;;;21.52;15.48;;;;;;;11.00;58.72;99221.81;4169761;28;20095;-58
2022/03/30 04:11:00;;;;;;;19.83;15.55;;;;;;;10.95;58.11;99220.97;4163689;28;20041;-57
2022/03/30 04:13:05;;;;;;;27.23;16.15;;;;;;;11.02;58.26;99222.66;4169860;28;20053;-58
2022/03/30 04:15:10;;;;;;;22.33;16.33;;;;;;;11.05;58.79;99225.22;4202832;28;20043;-58
2022/03/30 04:17:13;;;;;;;24.52;15.90;;;;;;;11.06;58.26;99224.34;4178208;28;20106;-57
2022/03/30 04:19:16;;;;;;;24.05;16.45;;;;;;;11.05;58.64;99219.16;4178609;28;20040;-58
2022/03/30 04:21:19;;;;;;;21.75;14.05;;;;;;;10.96;59.25;99222.72;4176746;28;20414;-58
2022/03/30 04:23:22;;;;;;;20.45;15.40;;;;;;;11.04;58.99;99226.13;4173050;28;20398;-58
2022/03/30 04:25:26;;;;;;;24.17;16.42;;;;;;;11.11;58.30;99227.81;4176658;28;20406;-58
2022/03/30 04:27:29;;;;;;;21.52;13.98;;;;;;;10.92;59.21;99231.41;4208697;28;20056;-58
2022/03/30 04:29:32;;;;;;;24.13;16.30;;;;;;;10.85;59.99;99230.59;4176735;28;20420;-57
2022/03/30 04:31:35;;;;;;;18.83;13.55;;;;;;;10.82;60.10;99239.28;4178678;28;20033;-57
2022/03/30 04:33:39;;;;;;;19.70;14.50;;;;;;;10.86;59.68;99231.44;4186674;28;20127;-58
2022/03/30 04:35:42;;;;;;;20.27;13.10;;;;;;;10.88;60.41;99237.47;4170937;28;20037;-58
2022/03/30 04:37:45;;;;;;;21.02;13.52;;;;;;;10.91;60.61;99238.34;4179101;28;20060;-58
2022/03/30 04:39:47;;;;;;;19.90;14.02;;;;;;;10.95;61.15;99232.25;4179800;28;20041;-58
2022/03/30 04:41:51;;;;;;;22.42;15.02;;;;;;;11.03;60.59;99232.19;4179441;28;20044;-58
2022/03/30 04:43:54;;;;;;;18.92;14.32;;;;;;;11.05;61.69;99225.22;4179426;28;20127;-58
2022/03/30 04:45:57;;;;;;;25.35;13.20;;;;;;;11.06;60.79;99245.16;4173139;28;20037;-58
2022/03/30 04:48:00;;;;;;;21.17;13.43;;;;;;;10.96;60.92;99236.56;4175402;28;20055;-58
2022/03/30 04:50:05;;;;;;;25.58;13.38;;;;;;;10.86;61.65;99239.25;4175032;28;20444;-58
2022/03/30 04:52:09;;;;;;;18.45;12.77;;;;;;;10.83;61.20;99240.13;4176467;28;20045;-58
2022/03/30 04:54:12;;;;;;;25.23;16.27;;;;;;;10.64;61.79;99244.56;4175186;28;20407;-58
2022/03/30 04:56:15;;;;;;;22.48;15.85;;;;;;;10.43;62.18;99249.00;4192530;28;20052;-57
2022/03/30 04:58:19;;;;;;;26.70;16.35;;;;;;;10.31;62.42;99255.09;4182201;28;20033;-57
2022/03/30 05:00:22;;;;;;;22.95;16.10;;;;;;;10.28;62.68;99249.06;4182415;28;20418;-57
2022/03/30 05:02:26;;;;;;;25.10;17.52;;;;;;;10.21;62.28;99247.38;4179957;28;20462;-58
2022/03/30 05:04:32;;;;;;;28.48;17.35;;;;;;;10.12;62.94;99254.31;4179940;28;20046;-57
2022/03/30 05:06:36;;;;;;;25.80;17.20;;;;;;;9.99;63.14;99265.59;4180702;28;20143;-57
2022/03/30 05:08:38;;;;;;;25.63;18.50;;;;;;;9.98;63.53;99271.66;4182194;28;20091;-58
2022/03/30 05:10:41;;;;;;;25.77;16.80;;;;;;;9.88;63.82;99276.00;4182562;28;20048;-58
2022/03/30 05:12:44;;;;;;;30.67;20.38;;;;;;;9.88;63.76;99269.94;4181767;28;20495;-57
2022/03/30 05:14:49;;;;;;;31.02;18.90;;;;;;;9.88;63.53;99269.94;4178719;28;20041;-58
2022/03/30 05:16:52;;;;;;;25.38;17.60;;;;;;;9.98;63.74;99271.66;4175236;28;20531;-57
2022/03/30 05:18:55;;;;;;;26.23;19.08;;;;;;;10.01;63.22;99263.84;4181813;28;20526;-58
2022/03/30 05:20:57;;;;;;;27.88;20.00;;;;;;;9.98;63.57;99269.06;4179433;28;20396;-57
2022/03/30 05:23:00;;;;;;;28.73;20.95;;;;;;;9.93;63.19;99266.47;4181677;28;20044;-58
2022/03/30 05:25:04;;;;;;;33.55;20.60;;;;;;;9.88;63.59;99269.94;4177989;28;20090;-57
2022/03/30 05:27:06;;;;;;;29.92;21.08;;;;;;;9.99;63.52;99265.59;4183178;28;20521;-58
2022/03/30 05:29:09;;;;;;;30.23;20.63;;;;;;;10.12;62.90;99267.28;4179216;28;20159;-58
2022/03/30 05:31:13;;;;;;;31.38;23.13;;;;;;;10.24;63.04;99258.59;4181652;28;20111;-58
2022/03/30 05:33:16;;;;;;;29.52;22.63;;;;;;;10.36;63.00;99260.31;4179352;28;20063;-57
2022/03/30 05:35:19;;;;;;;33.17;24.15;;;;;;;10.39;63.14;99256.84;4180238;28;20045;-57
2022/03/30 05:37:24;;;;;;;33.05;24.55;;;;;;;10.40;62.80;99256.81;4181504;28;20403;-57
2022/03/30 05:39:26;;;;;;;;;;;;;;;10.53;62.63;99256.75;4180399;28;20103;-58
2022/03/30 05:41:30;;;;;;;36.95;25.73;;;;;;;10.31;63.27;99259.44;4175209;28;20317;-58
2022/03/30 05:43:33;;;;;;;36.63;24.20;;;;;;;10.30;62.86;99245.56;4187793;28;20391;-58
2022/03/30 05:45:36;;;;;;;39.00;25.40;;;;;;;10.19;63.63;99243.88;4180242;28;20346;-57
2022/03/30 05:47:40;;;;;;;33.72;24.88;;;;;;;10.26;63.84;99258.59;4181738;28;20041;-57
2022/03/30 05:49:43;;;;;;;37.40;28.40;;;;;;;10.27;63.87;99255.13;4181636;28;20098;-57
2022/03/30 05:51:46;;;;;;;38.85;26.92;;;;;;;10.38;63.63;99255.09;4189563;28;20583;-58
2022/03/30 05:53:49;;;;;;;41.30;27.23;;;;;;;10.47;63.39;99260.28;4179923;28;20053;-57
2022/03/30 05:55:52;;;;;;;45.05;29.00;;;;;;;10.46;62.67;99253.34;4181354;28;20070;-57
2022/03/30 05:57:54;;;;;;;42.75;29.35;;;;;;;10.37;63.26;99251.66;4179685;28;20060;-58
2022/03/30 05:59:58;;;;;;;50.75;30.60;;;;;;;10.46;62.67;99254.19;4190842;28;20043;-57
2022/03/30 06:02:02;;;;;;;42.05;29.10;;;;;;;10.31;63.49;99251.66;4181319;28;20059;-57
2022/03/30 06:04:07;;;;;;;47.08;31.45;;;;;;;10.27;63.49;99253.38;4181768;28;20560;-57
2022/03/30 06:06:10;;;;;;;49.63;30.65;;;;;;;10.29;63.20;99255.97;4178577;28;20090;-57
2022/03/30 06:08:12;;;;;;;43.35;31.42;;;;;;;10.22;63.46;99254.25;4179475;28;20044;-57
2022/03/30 06:10:16;;;;;;;45.55;30.48;;;;;;;10.37;62.95;99249.03;4177981;28;20329;-57
2022/03/30 06:12:19;;;;;;;43.40;30.15;;;;;;;10.30;62.27;99255.97;4181122;28;20044;-57
2022/03/30 06:14:22;;;;;;;46.72;32.13;;;;;;;10.29;62.76;99259.44;4181471;28;20091;-57
2022/03/30 06:16:25;;;;;;;45.10;31.30;;;;;;;10.07;63.07;99260.38;4179537;28;20422;-57
2022/03/30 06:18:28;;;;;;;45.72;31.58;;;;;;;9.99;63.16;99257.81;4178059;28;20109;-57
2022/03/30 06:20:33;;;;;;;44.03;32.40;;;;;;;9.92;63.95;99261.28;4195070;28;20192;-57
2022/03/30 06:22:36;;;;;;;52.60;35.63;;;;;;;10.07;64.08;99260.38;4196001;28;20064;-58
2022/03/30 06:24:40;;;;;;;53.22;33.78;;;;;;;10.00;64.25;99261.25;4176664;28;20044;-57
2022/03/30 06:26:44;;;;;;;47.20;32.92;;;;;;;9.92;64.13;99266.50;4180310;28;20049;-58
2022/03/30 06:28:47;;;;;;;51.15;33.13;;;;;;;9.87;65.03;99261.31;4179749;28;20106;-57
2022/03/30 06:30:50;;;;;;;45.92;34.80;;;;;;;10.05;64.10;99268.19;4179573;28;20055;-57
2022/03/30 06:32:53;;;;;;;48.70;34.22;;;;;;;9.98;64.32;99266.47;4177748;28;20111;-59
2022/03/30 06:34:56;;;;;;;45.25;29.77;;;;;;;10.04;64.48;99266.44;4180778;28;20049;-57
2022/03/30 06:37:00;;;;;;;57.85;36.15;;;;;;;10.06;64.67;99269.91;4179788;28;20083;-57
2022/03/30 06:39:03;;;;;;;45.45;32.88;;;;;;;10.00;64.64;99279.44;4177120;28;20044;-57
2022/03/30 06:41:07;;;;;;;52.03;35.72;;;;;;;9.95;64.27;99276.88;4180652;28;20044;-58
2022/03/30 06:43:09;;;;;;;52.47;36.22;;;;;;;9.81;65.05;99276.88;4175901;28;20040;-58
2022/03/30 06:45:13;;;;;;;56.65;36.47;;;;;;;9.84;65.02;99276.00;4173702;28;20045;-57
2022/03/30 06:47:16;;;;;;;55.35;35.28;;;;;;;9.94;65.17;99281.19;4178050;28;20071;-57
2022/03/30 06:49:19;;;;;;;53.00;36.38;;;;;;;9.88;64.88;99275.16;4178643;28;20052;-57
2022/03/30 06:51:21;;;;;;;53.08;35.33;;;;;;;9.86;65.12;99272.56;4178272;28;20474;-57
2022/03/30 06:53:26;;;;;;;57.08;38.22;;;;;;;9.78;65.30;99274.28;4180869;28;20538;-57
2022/03/30 06:55:29;;;;;;;56.28;36.70;;;;;;;9.72;65.69;99269.97;4178338;28;20037;-58
2022/03/30 06:57:31;;;;;;;56.17;36.97;;;;;;;9.70;65.73;99269.13;4179044;28;20464;-57
2022/03/30 06:59:34;;;;;;;57.83;37.88;;;;;;;9.59;66.28;99265.66;4178197;28;20036;-57
2022/03/30 07:01:37;;;;;;;58.10;38.08;;;;;;;9.63;66.59;99269.13;4180365;28;20040;-58
2022/03/30 07:03:40;;;;;;;59.10;36.60;;;;;;;9.67;66.29;99258.75;4175454;28;20059;-57
2022/03/30 07:05:43;;;;;;;51.63;37.78;;;;;;;9.44;67.20;99257.03;4177918;28;20434;-58
2022/03/30 07:10:17;;;;;;;60.17;38.65;;;;;;;9.53;67.59;99257.91;4178772;28;20457;-57
2022/03/30 07:12:20;;;;;;;61.58;38.60;;;;;;;9.50;66.82;99252.72;4177414;28;20379;-57
2022/03/30 07:14:23;;;;;;;60.00;37.92;;;;;;;9.51;67.55;99244.94;4193497;28;20461;-57
2022/03/30 07:16:26;;;;;;;56.13;38.60;;;;;;;9.35;67.94;99253.59;4176707;28;20044;-57
2022/03/30 07:18:29;;;;;;;57.08;38.25;;;;;;;9.38;68.10;99254.44;4179357;28;20056;-57
2022/03/30 07:20:32;;;;;;;57.42;39.05;;;;;;;9.38;68.30;99251.84;4181116;28;20487;-56
2022/03/30 07:22:34;;;;;;;55.20;38.55;;;;;;;9.22;69.21;99244.94;4167700;28;21581;-57
2022/03/30 07:24:37;;;;;;;60.28;40.47;;;;;;;9.26;69.26;99249.28;4186529;28;20106;-57
2022/03/30 07:26:42;;;;;;;54.33;38.55;;;;;;;9.42;68.83;99247.53;4179648;28;20129;-57
2022/03/30 07:28:44;;;;;;;56.92;41.05;;;;;;;9.29;69.43;99248.38;4180404;28;20091;-57
2022/03/30 07:30:49;;;;;;;58.88;37.95;;;;;;;9.26;69.82;99251.88;4194164;28;20048;-57
2022/03/30 07:32:53;;;;;;;;;;;;;;;9.25;69.66;99244.94;4196985;28;20047;-57
2022/03/30 07:34:56;;;;;;;57.38;38.13;;;;;;;9.33;69.58;99248.41;4196648;28;19942;-57
2022/03/30 07:36:59;;;;;;;54.00;37.92;;;;;;;9.28;70.27;99252.72;4196572;28;20033;-57
2022/03/30 07:39:02;;;;;;;62.70;38.42;;;;;;;9.47;69.27;99247.53;4196286;28;20144;-57
2022/03/30 07:41:06;;;;;;;59.75;39.05;;;;;;;9.27;69.68;99250.97;4204103;28;20044;-57
2022/03/30 07:43:10;;;;;;;60.90;38.80;;;;;;;9.11;70.41;99257.03;4167941;28;20094;-57
2022/03/30 07:45:14;;;;;;;54.53;39.13;;;;;;;9.15;70.62;99256.19;4167641;28;20116;-57
2022/03/30 07:47:18;;;;;;;56.15;38.88;;;;;;;9.23;70.46;99254.47;4181469;28;20104;-57
2022/03/30 16:21:18;;;;;;;22.00;17.27;;;;;;;10.99;59.21;99012.94;4175910;27;20218;-55
2022/03/30 16:23:21;;;;;;;23.50;17.98;;;;;;;11.21;58.52;99010.06;4175905;28;20041;-57
2022/03/30 16:25:25;;;;;;;21.20;17.52;;;;;;;11.42;58.33;99013.28;4162955;28;20076;-57
2022/03/30 16:27:28;;;;;;;25.33;18.55;;;;;;;11.46;57.43;99013.25;4173363;28;20108;-57
2022/03/30 16:29:31;;;;;;;22.05;16.48;;;;;;;11.37;58.15;99008.13;4171081;28;20107;-57
2022/03/30 16:31:36;;;;;;;24.08;17.70;;;;;;;11.46;58.50;99004.56;4177641;28;20545;-57
2022/03/30 16:33:39;;;;;;;24.35;17.73;;;;;;;11.42;58.46;98998.53;4175462;28;20037;-57
2022/03/30 16:36:12;;;;;;;24.20;18.52;;;;;;;11.62;57.36;99010.41;4169781;28;20840;-59
2022/03/30 16:38:16;;;;;;;23.08;17.35;;;;;;;11.48;57.74;98998.47;4172230;28;20103;-58
2022/03/30 16:40:19;;;;;;;23.98;16.90;;;;;;;11.42;58.35;99002.88;4170040;28;20548;-58
2022/03/30 16:42:22;;;;;;;21.15;16.30;;;;;;;11.38;58.87;98996.84;4163772;28;20102;-59
2022/03/30 16:44:25;;;;;;;22.80;17.38;;;;;;;11.50;57.71;98988.03;4164602;28;20045;-58
2022/03/30 16:46:28;;;;;;;22.73;17.15;;;;;;;11.56;57.58;99003.56;4164610;28;20053;-59
2022/03/30 16:48:31;;;;;;;18.15;13.77;;;;;;;11.60;57.98;98994.81;4175059;28;20429;-58
2022/03/30 16:50:35;;;;;;;23.98;17.05;;;;;;;11.75;57.11;99001.56;4174121;28;20044;-59
2022/03/30 16:52:40;;;;;;;24.08;17.40;;;;;;;11.66;57.82;99002.53;4170715;28;20045;-59
2022/03/30 16:54:44;;;;;;;21.05;16.08;;;;;;;11.73;57.98;99003.34;4166185;28;20049;-59
2022/03/30 16:56:49;;;;;;;20.83;15.95;;;;;;;11.84;57.32;99001.44;4170955;28;20102;-59
2022/03/30 16:58:53;;;;;;;22.30;15.82;;;;;;;11.97;55.71;99007.38;4169790;28;20049;-59
2022/03/30 17:00:58;;;;;;;22.20;16.60;;;;;;;11.82;56.27;99002.34;4170218;28;20549;-58
2022/03/30 17:03:02;;;;;;;25.13;17.50;;;;;;;11.90;56.57;99002.22;4166565;28;20469;-59
2022/03/30 17:05:06;;;;;;;22.65;17.73;;;;;;;11.91;55.63;99002.19;4166852;28;20037;-58
2022/03/30 17:07:09;;;;;;;23.23;17.23;;;;;;;11.73;56.59;98995.53;4173619;28;20048;-58
2022/03/30 17:11:39;;;;;;;22.40;17.25;;;;;;;11.50;57.30;98996.69;4171358;28;20105;-58
2022/03/30 17:13:42;;;;;;;20.95;15.98;;;;;;;11.49;58.48;99001.91;4174407;28;20042;-58
2022/03/30 17:15:44;;;;;;;41.10;27.00;;;;;;;11.68;57.36;98995.59;4170630;28;20041;-58
2022/03/30 17:17:47;;;;;;;29.48;21.10;;;;;;;11.52;57.86;99005.34;4172504;28;20091;-59
2022/03/30 17:19:52;;;;;;;25.02;18.50;;;;;;;11.58;57.10;99003.53;4168503;28;20045;-59
2022/03/30 17:21:56;;;;;;;27.38;21.70;;;;;;;11.39;57.99;99002.91;4187057;28;20547;-58
2022/03/30 17:23:59;;;;;;;27.20;19.77;;;;;;;11.41;57.87;99003.78;4171150;28;20156;-58
2022/03/30 17:26:02;;;;;;;23.52;19.08;;;;;;;11.32;58.37;99002.13;4186229;28;20064;-58
2022/03/30 17:28:07;;;;;;;23.05;18.15;;;;;;;11.36;58.57;98998.63;4193020;28;20049;-58
2022/03/30 17:30:10;;;;;;;23.13;17.85;;;;;;;11.38;58.64;98998.59;4184311;28;20037;-58
2022/03/30 17:32:13;;;;;;;21.95;16.23;;;;;;;11.36;58.31;99003.84;4180899;28;20415;-59
2022/03/30 17:34:15;;;;;;;22.55;17.10;;;;;;;11.31;59.15;98998.66;4162143;28;20454;-58
2022/03/30 17:36:19;;;;;;;24.00;18.08;;;;;;;11.28;59.34;98997.84;4178867;28;20563;-58
2022/03/30 17:38:22;;;;;;;23.15;17.52;;;;;;;11.27;59.56;98998.72;4175006;28;20060;-59
2022/03/30 17:40:27;;;;;;;22.52;16.70;;;;;;;11.29;59.35;98997.84;4181330;28;20041;-58
2022/03/30 17:42:33;;;;;;;23.98;19.65;;;;;;;11.32;59.00;99002.13;4176967;28;20481;-58
2022/03/30 17:44:37;;;;;;;24.90;18.95;;;;;;;11.43;58.77;99002.00;4175161;28;20057;-58
2022/03/30 17:46:40;;;;;;;25.30;18.23;;;;;;;11.32;59.60;98999.53;4174553;28;20056;-58
2022/03/30 17:53:24;;;;;;;20.23;16.00;;;;;;;11.16;60.07;99002.31;4181026;28;20040;-58
2022/03/30 17:55:30;;;;;;;20.55;15.90;;;;;;;11.14;60.08;99009.28;4159033;28;20136;-59
2022/03/30 17:57:35;;;;;;;26.70;18.35;;;;;;;11.14;60.08;99006.69;4178029;28;20041;-58
2022/03/30 17:59:39;;;;;;;22.10;17.00;;;;;;;11.12;60.04;99010.19;4178499;28;20115;-58
2022/03/30 18:01:41;;;;;;;22.58;16.02;;;;;;;11.10;60.40;99015.41;4173631;28;20103;-58
2022/03/30 18:03:45;;;;;;;23.23;18.23;;;;;;;11.13;59.80;99012.75;4176952;28;20045;-58
2022/03/30 18:05:48;;;;;;;25.35;18.92;;;;;;;11.08;60.17;99011.09;4172127;28;20053;-58
2022/03/30 18:07:51;;;;;;;25.17;18.75;;;;;;;11.14;59.42;99018.81;4175546;28;20107;-58
2022/03/30 18:09:53;;;;;;;25.05;18.92;;;;;;;11.13;59.82;99017.09;4173852;28;20040;-58
2022/03/30 18:11:57;;;;;;;23.30;18.10;;;;;;;11.06;59.60;99025.84;4181393;28;20120;-58
2022/03/30 18:14:07;;;;;;;21.05;16.08;;;;;;;11.01;59.42;99023.31;4177432;28;20045;-58
2022/03/30 18:16:11;;;;;;;24.95;17.38;;;;;;;11.00;59.68;99021.56;4179078;28;20037;-58
2022/03/30 18:18:14;;;;;;;21.75;15.32;;;;;;;10.99;60.28;99025.03;4170135;28;20444;-59
2022/03/30 18:20:17;;;;;;;20.83;16.90;;;;;;;11.00;60.25;99026.78;4165626;28;21390;-58
2022/03/30 18:22:19;;;;;;;22.20;16.52;;;;;;;10.98;59.69;99029.41;4160506;28;20116;-58
2022/03/30 18:24:22;;;;;;;20.40;16.08;;;;;;;10.96;60.33;99022.47;4178666;28;20513;-60
2022/03/30 18:26:25;;;;;;;20.52;17.00;;;;;;;10.96;60.27;99020.72;4173035;28;20468;-58
2022/03/30 18:28:28;;;;;;;23.70;16.63;;;;;;;10.95;60.00;99021.63;4174961;28;20731;-58
2022/03/30 18:30:31;;;;;;;20.67;16.77;;;;;;;10.92;59.95;99028.59;4177126;28;20053;-59
2022/03/30 18:32:36;;;;;;;20.35;15.00;;;;;;;10.89;60.41;99028.63;4163284;28;20054;-59
2022/03/30 18:34:38;;;;;;;21.17;16.45;;;;;;;10.87;60.05;99036.44;4177872;28;20045;-58
2022/03/30 18:36:41;;;;;;;22.40;16.83;;;;;;;10.88;59.95;99034.69;4173289;28;20051;-58
2022/03/30 18:38:45;;;;;;;22.80;16.95;;;;;;;10.90;60.44;99030.34;4174774;28;20033;-59
2022/03/30 18:40:49;;;;;;;21.70;16.20;;;;;;;10.88;60.18;99026.88;4176807;28;20037;-58
2022/03/30 18:42:52;;;;;;;21.35;16.80;;;;;;;10.85;60.05;99029.53;4172296;28;20304;-58
2022/03/30 18:44:55;;;;;;;21.38;16.70;;;;;;;10.85;60.57;99034.72;4171343;28;20051;-57
2022/03/30 18:46:58;;;;;;;23.90;17.67;;;;;;;10.83;60.18;99030.41;4177866;28;20041;-58
2022/03/30 18:49:08;;;;;;;26.13;17.35;;;;;;;10.79;60.57;99038.25;4170808;28;20037;-57
2022/03/30 18:51:16;;;;;;;24.27;17.73;;;;;;;10.76;59.90;99027.88;4165226;28;20046;-59
2022/03/30 18:53:19;;;;;;;24.85;18.52;;;;;;;10.71;59.97;99022.72;4175270;28;20049;-60
2022/03/30 18:55:21;;;;;;;24.40;18.48;;;;;;;10.73;60.67;99030.50;4169873;28;20452;-59
2022/03/30 18:57:24;;;;;;;22.10;17.48;;;;;;;10.77;59.98;99024.41;4171581;28;20383;-60
2022/03/30 18:59:27;;;;;;;20.83;17.42;;;;;;;10.66;60.33;99024.53;4175549;28;20103;-60
2022/03/30 19:01:30;;;;;;;26.05;19.30;;;;;;;10.62;60.15;99028.88;4176965;28;20045;-59
2022/03/30 19:03:33;;;;;;;23.70;17.95;;;;;;;10.59;60.85;99026.31;4160244;28;20084;-60
2022/03/30 19:05:38;;;;;;;24.63;18.45;;;;;;;10.56;61.36;99028.94;4171756;28;20057;-58
2022/03/30 19:07:41;;;;;;;24.70;18.02;;;;;;;10.53;61.19;99023.78;4180189;28;20047;-56
2022/03/30 19:09:44;;;;;;;22.25;17.55;;;;;;;10.51;61.21;99035.91;4179630;28;20052;-56
2022/03/30 19:11:49;;;;;;;22.15;17.35;;;;;;;10.48;61.28;99033.31;4180070;28;20453;-55
2022/03/30 19:13:52;;;;;;;20.35;15.98;;;;;;;10.45;61.64;99039.44;4173923;28;20103;-54
2022/03/30 19:15:55;;;;;;;23.77;17.65;;;;;;;10.43;61.73;99040.31;4168299;28;20049;-55
2022/03/30 19:17:58;;;;;;;25.23;16.10;;;;;;;10.41;62.08;99037.72;4179943;28;20067;-56
2022/03/30 19:20:02;;;;;;;21.00;15.32;;;;;;;10.43;61.83;99042.91;4177891;28;20449;-59
2022/03/30 19:22:07;;;;;;;;;;;;;;;10.26;62.83;99049.03;4175157;28;20033;-57
2022/03/30 19:24:10;;;;;;;22.70;16.00;;;;;;;10.31;62.43;99046.44;4157597;28;20368;-55
2022/03/30 19:26:13;;;;;;;25.90;16.73;;;;;;;10.35;62.46;99048.16;4175914;28;20041;-56
2022/03/30 19:28:16;;;;;;;23.75;17.10;;;;;;;10.33;62.58;99047.28;4177281;28;20045;-55
2022/03/30 19:30:20;;;;;;;21.60;16.63;;;;;;;10.30;62.20;99045.56;4181454;28;20067;-55
2022/03/30 19:32:22;;;;;;;24.90;17.45;;;;;;;10.30;62.40;99047.31;4173552;28;20055;-57
2022/03/30 19:34:26;;;;;;;24.25;17.85;;;;;;;10.29;63.05;99041.25;4156894;28;20057;-57
2022/03/30 19:36:30;;;;;;;23.33;18.00;;;;;;;10.29;62.57;99042.97;4175640;28;20502;-57
2022/03/30 19:38:34;;;;;;;26.45;17.95;;;;;;;10.30;62.74;99047.31;4180696;28;20481;-57
2022/03/30 19:40:38;;;;;;;23.88;16.58;;;;;;;10.28;62.71;99042.13;4178859;28;20048;-58
2022/03/30 19:42:41;;;;;;;24.77;17.85;;;;;;;10.29;62.32;99050.75;4180327;28;20457;-56
2022/03/30 19:44:44;;;;;;;23.10;18.92;;;;;;;10.29;62.37;99041.25;4179916;28;20440;-57
2022/03/30 19:46:47;;;;;;;28.15;19.42;;;;;;;10.28;63.11;99051.66;4179090;28;20103;-55
2022/03/30 19:48:50;;;;;;;24.15;17.27;;;;;;;10.26;62.66;99045.59;4162683;28;20160;-56
2022/03/30 19:50:53;;;;;;;21.42;15.98;;;;;;;10.28;63.15;99051.66;4176348;28;20090;-57
2022/03/30 19:52:57;;;;;;;24.23;18.15;;;;;;;10.32;62.84;99053.34;4159309;28;20065;-58
2022/03/30 19:55:02;;;;;;;26.40;19.10;;;;;;;10.31;62.59;99054.22;4178907;28;20041;-57
2022/03/30 19:57:05;;;;;;;22.23;16.65;;;;;;;10.32;63.21;99053.34;4178373;28;20068;-58
2022/03/30 19:59:08;;;;;;;21.27;16.73;;;;;;;10.29;63.05;99059.44;4179551;28;20037;-55
2022/03/30 20:01:11;;;;;;;27.75;18.88;;;;;;;10.29;62.85;99059.44;4177130;28;20044;-57
2022/03/30 20:03:16;;;;;;;22.70;17.77;;;;;;;10.29;63.20;99055.97;4193148;28;20144;-57
2022/03/30 20:05:20;;;;;;;25.60;19.70;;;;;;;10.28;63.15;99051.66;4177903;28;20441;-57
2022/03/30 20:07:23;;;;;;;27.08;18.92;;;;;;;10.22;63.07;99051.69;4172637;28;20044;-57
2022/03/30 20:09:26;;;;;;;25.10;19.48;;;;;;;10.18;63.09;99044.78;4179231;28;20041;-57
2022/03/30 20:11:30;;;;;;;25.60;18.88;;;;;;;10.14;63.32;99049.16;4176705;28;21174;-57
2022/03/30 20:13:33;;;;;;;26.20;20.77;;;;;;;10.08;63.29;99042.25;4175643;28;20044;-57
2022/03/30 20:15:38;;;;;;;27.02;19.83;;;;;;;10.09;63.38;99041.41;4168934;28;20045;-58
2022/03/30 20:17:41;;;;;;;28.90;20.00;;;;;;;10.02;63.85;99039.72;4179206;28;20049;-58
2022/03/30 20:19:48;;;;;;;28.67;20.95;;;;;;;9.94;63.92;99036.28;4178988;28;20044;-57
2022/03/30 20:21:51;;;;;;;29.95;21.55;;;;;;;9.94;64.02;99031.09;4175646;28;20036;-57
2022/03/30 20:23:54;;;;;;;25.48;20.05;;;;;;;9.98;63.84;99029.34;4168823;28;20518;-57
2022/03/30 20:25:57;;;;;;;26.85;21.63;;;;;;;9.91;64.03;99031.13;4171797;28;20567;-57
2022/03/30 20:28:01;;;;;;;25.42;21.02;;;;;;;9.91;63.57;99023.31;4171925;28;20040;-58
2022/03/30 20:30:06;;;;;;;24.60;18.73;;;;;;;9.84;63.74;99029.44;4168076;28;20391;-58
2022/03/30 20:32:10;;;;;;;;;;;;;;;9.69;64.19;99033.81;4169155;28;20036;-57
2022/03/30 20:34:13;;;;;;;29.98;19.23;;;;;;;9.77;63.73;99032.06;4180176;28;19921;-57
2022/03/30 20:36:16;;;;;;;26.70;20.25;;;;;;;9.78;63.39;99036.41;4176210;28;20037;-57
2022/03/30 20:38:18;;;;;;;23.38;17.40;;;;;;;9.80;63.45;99036.38;4175579;28;20049;-57
2022/03/30 20:40:21;;;;;;;25.10;18.90;;;;;;;9.81;63.35;99034.63;4177405;28;20091;-56
2022/03/30 20:42:24;;;;;;;23.27;17.77;;;;;;;9.77;63.62;99032.06;4172237;28;20041;-57
2022/03/30 20:44:28;;;;;;;23.35;18.00;;;;;;;9.77;63.75;99037.25;4175882;28;20037;-57
2022/03/30 20:46:33;;;;;;;22.92;17.50;;;;;;;9.75;64.07;99036.41;4179112;28;20135;-56
2022/03/30 20:48:56;;;;;;;24.40;19.60;;;;;;;9.69;64.54;99038.16;4179103;28;20033;-57
2022/03/30 20:51:02;;;;;;;25.00;18.38;;;;;;;9.67;64.11;99034.72;4180310;28;20045;-57
2022/03/30 20:53:05;;;;;;;30.85;21.35;;;;;;;9.74;63.73;99041.63;4180232;28;20402;-58
2022/03/30 20:55:09;;;;;;;23.25;18.80;;;;;;;9.75;63.44;99036.41;4177855;28;20413;-57
2022/03/30 20:57:12;;;;;;;24.30;18.35;;;;;;;9.68;63.78;99029.53;4180074;28;20052;-57
2022/03/30 20:59:15;;;;;;;26.23;18.27;;;;;;;9.63;63.75;99033.00;4179180;28;20048;-57
2022/03/30 21:01:19;;;;;;;23.77;19.45;;;;;;;9.65;63.71;99032.16;4177167;28;20037;-57
2022/03/30 21:03:23;;;;;;;24.65;18.90;;;;;;;9.58;64.04;99033.91;4178071;28;20037;-57
2022/03/30 21:05:26;;;;;;;22.13;18.60;;;;;;;9.56;64.10;99032.16;4155749;28;20045;-58
2022/03/30 21:07:29;;;;;;;25.80;19.48;;;;;;;9.53;64.24;99030.44;4190664;28;20451;-56
2022/03/30 21:09:32;;;;;;;26.77;19.88;;;;;;;9.49;64.18;99022.69;4181708;28;20045;-57
2022/03/30 21:11:35;;;;;;;28.85;18.42;;;;;;;9.46;64.44;99028.75;4182311;28;20049;-56
2022/03/30 21:13:38;;;;;;;25.88;19.15;;;;;;;9.48;64.29;99021.00;4181254;28;20053;-58
2022/03/30 21:15:42;;;;;;;25.77;20.30;;;;;;;9.46;64.40;99018.38;4182629;28;20095;-59
2022/03/30 21:17:47;;;;;;;29.30;20.02;;;;;;;9.44;64.57;99014.94;4181667;28;20041;-57
2022/03/30 21:19:50;;;;;;;24.63;18.48;;;;;;;9.43;64.59;99018.38;4182864;28;20048;-57
2022/03/30 21:21:52;;;;;;;23.52;17.33;;;;;;;9.43;64.65;99018.38;4182349;28;20106;-58
2022/03/30 21:23:55;;;;;;;24.67;18.52;;;;;;;9.39;64.68;99020.16;4181660;28;20125;-57
2022/03/30 21:25:58;;;;;;;23.55;18.23;;;;;;;9.39;65.07;99022.75;4175865;28;20045;-58
2022/03/30 21:28:02;;;;;;;27.23;19.08;;;;;;;9.39;65.43;99020.16;4183158;28;20068;-58
2022/03/30 21:30:05;;;;;;;25.88;20.00;;;;;;;9.36;65.05;99007.19;4181542;28;20041;-57
2022/03/30 21:32:08;;;;;;;23.88;18.70;;;;;;;9.32;65.24;99010.66;4182826;28;20094;-57
2022/03/30 21:34:12;;;;;;;25.05;19.13;;;;;;;9.32;65.24;99008.06;4182928;28;20214;-56
2022/03/30 21:36:15;;;;;;;27.90;20.55;;;;;;;9.30;65.21;99002.03;4176302;28;20413;-57
2022/03/30 21:38:18;;;;;;;23.58;18.50;;;;;;;9.29;65.47;99005.50;4182825;28;20053;-57